Terminal Aerodrome Forecast
Issued by NWS Pueblo, CO

Home | Current Version | Previous Version | Text Only | Print | Product List | Glossary On
Versions: 1 2 3 4 5 6 7 8 9 10 11 12 13 14 15 16 17 18 19 20 21 22 23 24 25 26
000
FTUS45 KPUB 192322
TAFALS
TAF
KALS 192322Z 2000/2024 25008KT P6SM VCTS SCT090CB BKN140
     FM200200 20008KT P6SM SCT100 BKN200
     FM200600 VRB06KT P6SM SCT120 SCT200
     FM201600 17008KT P6SM SCT100 SCT200
     FM202000 22012KT P6SM VCTS SCT080CB BKN140=

USA.gov is the U.S. government's official web portal to all federal, state and local government web resources and services.